Archival Weather

South Haven Area Rgnl

South Haven, Michigan (KLWA)

Report from: Thursday, September 21, 2023 2:55 PM EDT
Current time: Tuesday, February 27, 2024 5:19 AM EST

Current weather – Weather history – Daily summaries
Weather forecast

Temperature25.4°C (77.7°F)
Dew point17.0°C (62.6°F)
Winds 3 kts (1.5 m/s, 3.5 mph) Southeast (140°)
Visibility10 mi. (16.1 km)
Clouds Sky clear
Altimeter30.22 in.Hg (1023 mB)
Relative humidity60 %
Density altitude1,130 ft. (345 m)
Remarks Fully automated report
Automated weather observing station with precipitation discriminator
Flight conditions Visual Meteorological Conditions
Raw dataKLWA 211855Z AUTO 14003KT 10SM CLR 25/17 A3022 RMK AO2 T02540170
An error has occurred. This application may no longer respond until reloaded. Reload 🗙